Straughn, Alabama
Current Conditions -  °F | °C
As of 1:56 PM on Saturday 25 Oct 2014 (Local Time) from K79J Reporting Station
Clear Clear  
Wind Chill: 80°   Ceiling: Unl
Heat Index: 80°   Visibility: 10mi
Dew Point: 49°   Wind: 9mph
Humidity: 34%   Direction: 330°NNW
Pressure: 30.04"   Gusts: NA
Location:  31.1836°N, 86.5372°W
Report Text: K79J 251856Z AUTO 33008KT 10SM CLR 27/09 A3004 RMK AO2 SLP170 T02670094
Loading
Personal Weather Stations






























Interactive Weather Map
Tropical Storm Tracking
New forecast layout! Learn more

10-Day Weather Forecast

Advertisements
Track Severe Weather on mobile